Portada
METAR-TAF:

METAR-TAF

Aeroports :

Council Bluffs, Iowa, Estats Units d'Amèrica

latitud: 41-16N, longitud: 095-46W, altitud: 382 m

Observació

L'informe es va fer fa 10 minuts, a les 18:15 UTC
Vent 8 kt del Nord/Nord-Oest amb ràfegues de 13 kt, variant entre Oest/Nord-Oest i Nord
Temperatura 17°C
Humitat 100%
Pressió 1008 hPa
Visibilitat: 4.8 km
Cel cobert a una alçada de 300 ft
pluja

METAR: KCBF 261815Z AUTO 33008G13KT 300V360 3SM -RA OVC003 17/17 A2976 RMK AO2

Hora: 13:25 (18:25 UTC)


TAF: manca

Observacions i pronòstics meteorològics de més de 4000 aeroports (METAR i TAF).

Les estacions disponibles són els punts grocs i vermells al mapa.

Posi el ratolí al punt desitjat per veure el nom de l'estació.

Feu clic per veure les observacions i els pronòstics meteorològics.

Per canviar el mapa: feu clic els botons verds amb una creu de color negre per apropar; al botó verd amb un guió per allunyar la imatge; o en les fletxes verdes per a mapes adjacents.


METAR-TAF: